sensor_id;sensor_type;location;lat;lon;timestamp;pressure;altitude;pressure_sealevel;temperature;humidity
47785;BME280;35233;55.686;37.848;2023-12-22T00:01:14;97485.31;;;21.54;34.10
47785;BME280;35233;55.686;37.848;2023-12-22T00:03:43;97479.78;;;21.55;34.49
47785;BME280;35233;55.686;37.848;2023-12-22T00:06:11;97475.91;;;21.58;34.26
47785;BME280;35233;55.686;37.848;2023-12-22T00:08:37;97478.78;;;21.56;34.46
47785;BME280;35233;55.686;37.848;2023-12-22T00:11:03;97474.94;;;21.59;33.99
47785;BME280;35233;55.686;37.848;2023-12-22T00:13:29;97469.72;;;21.57;34.19
47785;BME280;35233;55.686;37.848;2023-12-22T00:15:54;97482.13;;;21.58;34.09
47785;BME280;35233;55.686;37.848;2023-12-22T00:18:20;97473.09;;;21.59;34.39
47785;BME280;35233;55.686;37.848;2023-12-22T00:20:45;97474.94;;;21.59;33.95
47785;BME280;35233;55.686;37.848;2023-12-22T00:23:11;97472.59;;;21.56;34.01
47785;BME280;35233;55.686;37.848;2023-12-22T00:25:36;97465.16;;;21.58;34.17
47785;BME280;35233;55.686;37.848;2023-12-22T00:28:02;97466.19;;;21.57;34.10
47785;BME280;35233;55.686;37.848;2023-12-22T00:30:27;97471.38;;;21.58;33.95
47785;BME280;35233;55.686;37.848;2023-12-22T00:32:53;97464.34;;;21.57;34.15
47785;BME280;35233;55.686;37.848;2023-12-22T00:35:19;97460.63;;;21.58;33.88
47785;BME280;35233;55.686;37.848;2023-12-22T00:37:44;97460.31;;;21.61;34.25
47785;BME280;35233;55.686;37.848;2023-12-22T00:40:10;97464.84;;;21.61;33.91
47785;BME280;35233;55.686;37.848;2023-12-22T00:42:36;97458.28;;;21.55;34.04
47785;BME280;35233;55.686;37.848;2023-12-22T00:45:01;97457.94;;;21.58;33.93
47785;BME280;35233;55.686;37.848;2023-12-22T00:47:28;97454.28;;;21.59;33.98
47785;BME280;35233;55.686;37.848;2023-12-22T00:49:53;97456.63;;;21.62;34.18
47785;BME280;35233;55.686;37.848;2023-12-22T00:52:19;97455.25;;;21.58;34.09
47785;BME280;35233;55.686;37.848;2023-12-22T00:54:44;97457.66;;;21.61;33.69
47785;BME280;35233;55.686;37.848;2023-12-22T00:57:10;97459.78;;;21.58;33.84
47785;BME280;35233;55.686;37.848;2023-12-22T00:59:36;97453.78;;;21.56;33.73
47785;BME280;35233;55.686;37.848;2023-12-22T01:02:02;97452.56;;;21.58;33.86
47785;BME280;35233;55.686;37.848;2023-12-22T01:04:28;97467.38;;;21.62;33.72
47785;BME280;35233;55.686;37.848;2023-12-22T01:06:53;97462.34;;;21.59;33.71
47785;BME280;35233;55.686;37.848;2023-12-22T01:09:19;97464.00;;;21.60;33.98
47785;BME280;35233;55.686;37.848;2023-12-22T01:11:45;97451.59;;;21.59;33.77
47785;BME280;35233;55.686;37.848;2023-12-22T01:14:11;97448.72;;;21.61;34.09
47785;BME280;35233;55.686;37.848;2023-12-22T01:16:39;97461.16;;;21.62;33.84
47785;BME280;35233;55.686;37.848;2023-12-22T01:19:04;97455.78;;;21.62;34.29
47785;BME280;35233;55.686;37.848;2023-12-22T01:21:30;97457.94;;;21.58;33.82
47785;BME280;35233;55.686;37.848;2023-12-22T01:23:56;97456.78;;;21.61;34.10
47785;BME280;35233;55.686;37.848;2023-12-22T01:26:24;97463.66;;;21.63;33.95
47785;BME280;35233;55.686;37.848;2023-12-22T01:28:49;97464.00;;;21.60;33.90
47785;BME280;35233;55.686;37.848;2023-12-22T01:31:15;97459.47;;;21.61;33.57
47785;BME280;35233;55.686;37.848;2023-12-22T01:33:40;97455.47;;;21.65;33.57
47785;BME280;35233;55.686;37.848;2023-12-22T01:36:06;97458.78;;;21.67;33.75
47785;BME280;35233;55.686;37.848;2023-12-22T01:38:32;97457.47;;;21.63;33.54
47785;BME280;35233;55.686;37.848;2023-12-22T01:40:57;97454.63;;;21.64;33.48
47785;BME280;35233;55.686;37.848;2023-12-22T01:43:23;97451.25;;;21.62;33.72
47785;BME280;35233;55.686;37.848;2023-12-22T01:45:52;97448.03;;;21.67;33.83
47785;BME280;35233;55.686;37.848;2023-12-22T01:48:21;97460.81;;;21.65;33.50
47785;BME280;35233;55.686;37.848;2023-12-22T01:50:52;97442.84;;;21.65;33.97
47785;BME280;35233;55.686;37.848;2023-12-22T01:53:22;97439.66;;;21.62;33.91
47785;BME280;35233;55.686;37.848;2023-12-22T01:55:50;97439.97;;;21.67;33.58
47785;BME280;35233;55.686;37.848;2023-12-22T01:58:18;97436.44;;;21.58;33.75
47785;BME280;35233;55.686;37.848;2023-12-22T02:00:44;97430.25;;;21.66;33.41
47785;BME280;35233;55.686;37.848;2023-12-22T02:03:10;97440.16;;;21.65;33.54
47785;BME280;35233;55.686;37.848;2023-12-22T02:05:36;97437.47;;;21.65;33.99
47785;BME280;35233;55.686;37.848;2023-12-22T02:08:02;97438.50;;;21.64;33.62
47785;BME280;35233;55.686;37.848;2023-12-22T02:10:28;97431.41;;;21.63;33.81
47785;BME280;35233;55.686;37.848;2023-12-22T02:12:53;97430.25;;;21.66;33.29
47785;BME280;35233;55.686;37.848;2023-12-22T02:15:19;97425.72;;;21.66;33.39
47785;BME280;35233;55.686;37.848;2023-12-22T02:20:28;97428.41;;;21.66;33.34
47785;BME280;35233;55.686;37.848;2023-12-22T02:22:55;97436.47;;;21.66;33.44
47785;BME280;35233;55.686;37.848;2023-12-22T02:25:20;97431.59;;;21.62;33.28
47785;BME280;35233;55.686;37.848;2023-12-22T02:28:10;97434.94;;;21.64;33.73
47785;BME280;35233;55.686;37.848;2023-12-22T02:31:22;97433.97;;;21.65;33.62
47785;BME280;35233;55.686;37.848;2023-12-22T02:33:41;97428.91;;;21.62;33.72
47785;BME280;35233;55.686;37.848;2023-12-22T02:36:08;97431.91;;;21.67;33.43
47785;BME280;35233;55.686;37.848;2023-12-22T02:38:35;97423.38;;;21.63;33.06
47785;BME280;35233;55.686;37.848;2023-12-22T02:41:01;97426.41;;;21.68;33.26
47785;BME280;35233;55.686;37.848;2023-12-22T02:43:28;97422.19;;;21.66;33.56
47785;BME280;35233;55.686;37.848;2023-12-22T02:45:54;97422.53;;;21.71;33.55
47785;BME280;35233;55.686;37.848;2023-12-22T02:50:45;97411.28;;;21.67;33.25
47785;BME280;35233;55.686;37.848;2023-12-22T02:53:10;97407.59;;;21.68;33.46
47785;BME280;35233;55.686;37.848;2023-12-22T02:55:36;97407.75;;;21.67;33.46
47785;BME280;35233;55.686;37.848;2023-12-22T02:58:02;97396.00;;;21.68;33.38
47785;BME280;35233;55.686;37.848;2023-12-22T03:00:27;97398.50;;;21.69;33.37
47785;BME280;35233;55.686;37.848;2023-12-22T03:02:53;97401.38;;;21.68;33.46
47785;BME280;35233;55.686;37.848;2023-12-22T03:05:18;97414.28;;;21.73;33.20
47785;BME280;35233;55.686;37.848;2023-12-22T03:07:44;97408.25;;;21.70;33.20
47785;BME280;35233;55.686;37.848;2023-12-22T03:10:09;97408.06;;;21.64;33.19
47785;BME280;35233;55.686;37.848;2023-12-22T03:12:35;97406.25;;;21.64;33.24
47785;BME280;35233;55.686;37.848;2023-12-22T03:15:01;97400.88;;;21.64;33.31
47785;BME280;35233;55.686;37.848;2023-12-22T03:17:26;97405.22;;;21.65;33.08
47785;BME280;35233;55.686;37.848;2023-12-22T03:19:52;97399.88;;;21.65;33.25
47785;BME280;35233;55.686;37.848;2023-12-22T03:22:18;97400.34;;;21.69;33.03
47785;BME280;35233;55.686;37.848;2023-12-22T03:24:43;97394.31;;;21.67;33.07
47785;BME280;35233;55.686;37.848;2023-12-22T03:27:09;97399.88;;;21.65;33.29
47785;BME280;35233;55.686;37.848;2023-12-22T03:29:35;97390.78;;;21.66;33.33
47785;BME280;35233;55.686;37.848;2023-12-22T03:32:00;97400.69;;;21.66;33.09
47785;BME280;35233;55.686;37.848;2023-12-22T03:34:26;97400.88;;;21.64;33.03
47785;BME280;35233;55.686;37.848;2023-12-22T03:36:52;97402.38;;;21.67;33.01
47785;BME280;35233;55.686;37.848;2023-12-22T03:39:17;97392.63;;;21.66;33.41
47785;BME280;35233;55.686;37.848;2023-12-22T03:41:46;97395.50;;;21.64;33.07
47785;BME280;35233;55.686;37.848;2023-12-22T03:46:37;97393.47;;;21.66;33.08
47785;BME280;35233;55.686;37.848;2023-12-22T03:49:02;97396.00;;;21.68;33.09
47785;BME280;35233;55.686;37.848;2023-12-22T03:51:28;97396.00;;;21.68;33.14
47785;BME280;35233;55.686;37.848;2023-12-22T03:53:54;97390.47;;;21.61;33.05
47785;BME280;35233;55.686;37.848;2023-12-22T03:56:19;97392.63;;;21.66;33.17
47785;BME280;35233;55.686;37.848;2023-12-22T04:01:14;97388.09;;;21.66;32.38
47785;BME280;35233;55.686;37.848;2023-12-22T04:03:40;97387.94;;;21.76;32.80
47785;BME280;35233;55.686;37.848;2023-12-22T04:06:06;97394.16;;;21.77;32.93
47785;BME280;35233;55.686;37.848;2023-12-22T04:08:31;97391.63;;;21.75;32.74
47785;BME280;35233;55.686;37.848;2023-12-22T04:10:57;97378.03;;;21.77;33.19
47785;BME280;35233;55.686;37.848;2023-12-22T04:13:22;97383.22;;;21.78;33.03
47785;BME280;35233;55.686;37.848;2023-12-22T04:15:48;97384.91;;;21.79;33.35
47785;BME280;35233;55.686;37.848;2023-12-22T04:18:14;97370.94;;;21.76;33.79
47785;BME280;35233;55.686;37.848;2023-12-22T04:20:39;97369.63;;;21.80;33.42
47785;BME280;35233;55.686;37.848;2023-12-22T04:23:05;97372.13;;;21.89;33.67
47785;BME280;35233;55.686;37.848;2023-12-22T04:25:30;97375.31;;;21.36;34.18
47785;BME280;35233;55.686;37.848;2023-12-22T04:27:56;97363.06;;;20.24;35.68
47785;BME280;35233;55.686;37.848;2023-12-22T04:30:21;97362.47;;;19.78;36.15
47785;BME280;35233;55.686;37.848;2023-12-22T04:32:47;97364.81;;;19.55;36.51
47785;BME280;35233;55.686;37.848;2023-12-22T04:35:12;97359.69;;;19.43;36.69
47785;BME280;35233;55.686;37.848;2023-12-22T04:37:38;97356.19;;;20.21;35.75
47785;BME280;35233;55.686;37.848;2023-12-22T04:40:04;97359.47;;;19.63;36.44
47785;BME280;35233;55.686;37.848;2023-12-22T04:42:30;97351.44;;;19.19;36.50
47785;BME280;35233;55.686;37.848;2023-12-22T04:44:55;97352.28;;;19.02;36.68
47785;BME280;35233;55.686;37.848;2023-12-22T04:47:21;97347.66;;;18.76;37.08
47785;BME280;35233;55.686;37.848;2023-12-22T04:49:46;97327.47;;;18.64;36.73
47785;BME280;35233;55.686;37.848;2023-12-22T04:52:12;97334.13;;;18.60;36.75
47785;BME280;35233;55.686;37.848;2023-12-22T04:54:38;97332.78;;;18.46;36.92
47785;BME280;35233;55.686;37.848;2023-12-22T04:57:04;97343.53;;;18.36;37.00
47785;BME280;35233;55.686;37.848;2023-12-22T04:59:30;97342.59;;;18.27;37.19
47785;BME280;35233;55.686;37.848;2023-12-22T05:01:56;97341.34;;;18.22;37.07
47785;BME280;35233;55.686;37.848;2023-12-22T05:04:21;97338.56;;;18.14;37.17
47785;BME280;35233;55.686;37.848;2023-12-22T05:06:50;97341.44;;;18.02;37.29
47785;BME280;35233;55.686;37.848;2023-12-22T05:09:17;97338.06;;;18.00;37.00
47785;BME280;35233;55.686;37.848;2023-12-22T05:11:42;97333.88;;;17.88;37.19
47785;BME280;35233;55.686;37.848;2023-12-22T05:14:09;97334.72;;;17.88;37.17
47785;BME280;35233;55.686;37.848;2023-12-22T05:16:35;97351.03;;;17.85;37.75
47785;BME280;35233;55.686;37.848;2023-12-22T05:19:01;97339.53;;;17.75;37.78
47785;BME280;35233;55.686;37.848;2023-12-22T05:21:26;97352.47;;;17.70;37.71
47785;BME280;35233;55.686;37.848;2023-12-22T05:23:53;97354.19;;;17.61;38.12
47785;BME280;35233;55.686;37.848;2023-12-22T05:26:20;97341.13;;;17.58;37.89
47785;BME280;35233;55.686;37.848;2023-12-22T05:28:46;97355.13;;;17.80;37.76
47785;BME280;35233;55.686;37.848;2023-12-22T05:31:12;97352.59;;;17.88;37.24
47785;BME280;35233;55.686;37.848;2023-12-22T05:33:38;97362.00;;;17.92;37.90
47785;BME280;35233;55.686;37.848;2023-12-22T05:36:04;97353.13;;;17.92;37.36
47785;BME280;35233;55.686;37.848;2023-12-22T05:38:30;97354.97;;;17.91;37.34
47785;BME280;35233;55.686;37.848;2023-12-22T05:40:56;97353.00;;;17.93;37.20
47785;BME280;35233;55.686;37.848;2023-12-22T05:43:22;97350.16;;;17.95;37.76
47785;BME280;35233;55.686;37.848;2023-12-22T05:45:47;97359.03;;;17.95;37.68
47785;BME280;35233;55.686;37.848;2023-12-22T05:48:13;97346.81;;;17.93;37.39
47785;BME280;35233;55.686;37.848;2023-12-22T05:50:38;97350.75;;;17.88;37.49
47785;BME280;35233;55.686;37.848;2023-12-22T05:53:04;97354.97;;;17.91;37.17
47785;BME280;35233;55.686;37.848;2023-12-22T05:55:30;97356.97;;;17.89;37.37
47785;BME280;35233;55.686;37.848;2023-12-22T05:57:55;97356.97;;;17.89;37.14
47785;BME280;35233;55.686;37.848;2023-12-22T06:00:21;97360.59;;;17.88;37.25
47785;BME280;35233;55.686;37.848;2023-12-22T06:02:47;97356.69;;;17.82;37.40
47785;BME280;35233;55.686;37.848;2023-12-22T06:05:13;97361.59;;;17.87;37.36
47785;BME280;35233;55.686;37.848;2023-12-22T06:07:39;97350.78;;;17.79;37.29
47785;BME280;35233;55.686;37.848;2023-12-22T06:10:06;97354.00;;;17.82;37.10
47785;BME280;35233;55.686;37.848;2023-12-22T06:12:32;97349.38;;;17.84;37.25
47785;BME280;35233;55.686;37.848;2023-12-22T06:14:58;97345.16;;;17.82;37.48
47785;BME280;35233;55.686;37.848;2023-12-22T06:17:23;97348.25;;;17.77;37.45
47785;BME280;35233;55.686;37.848;2023-12-22T06:19:49;97353.00;;;17.74;37.37
47785;BME280;35233;55.686;37.848;2023-12-22T06:22:14;97355.84;;;17.72;37.47
47785;BME280;35233;55.686;37.848;2023-12-22T06:24:40;97361.72;;;17.76;37.13
47785;BME280;35233;55.686;37.848;2023-12-22T06:27:06;97356.41;;;17.76;36.79
47785;BME280;35233;55.686;37.848;2023-12-22T06:29:32;97360.91;;;17.75;36.95
47785;BME280;35233;55.686;37.848;2023-12-22T06:31:58;97366.94;;;17.77;37.22
47785;BME280;35233;55.686;37.848;2023-12-22T06:34:24;97375.81;;;17.78;37.04
47785;BME280;35233;55.686;37.848;2023-12-22T06:36:51;97373.16;;;17.78;37.04
47785;BME280;35233;55.686;37.848;2023-12-22T06:39:16;97367.53;;;17.81;36.96
47785;BME280;35233;55.686;37.848;2023-12-22T06:41:42;97357.81;;;17.80;36.99
47785;BME280;35233;55.686;37.848;2023-12-22T06:44:07;97359.81;;;17.78;36.68
47785;BME280;35233;55.686;37.848;2023-12-22T06:46:35;97359.50;;;17.81;36.48
47785;BME280;35233;55.686;37.848;2023-12-22T06:49:01;97352.63;;;17.78;36.75
47785;BME280;35233;55.686;37.848;2023-12-22T06:51:28;97359.66;;;17.79;36.85
47785;BME280;35233;55.686;37.848;2023-12-22T06:53:56;97363.41;;;17.77;36.94
47785;BME280;35233;55.686;37.848;2023-12-22T06:56:24;97357.38;;;17.75;36.60
47785;BME280;35233;55.686;37.848;2023-12-22T06:58:51;97351.88;;;17.76;36.60
47785;BME280;35233;55.686;37.848;2023-12-22T07:01:26;97355.69;;;17.74;36.73
47785;BME280;35233;55.686;37.848;2023-12-22T07:03:52;97364.97;;;17.79;37.12
47785;BME280;35233;55.686;37.848;2023-12-22T07:06:21;97375.53;;;17.81;36.72
47785;BME280;35233;55.686;37.848;2023-12-22T07:14:11;97366.22;;;17.85;37.16
47785;BME280;35233;55.686;37.848;2023-12-22T07:16:37;97373.00;;;17.89;37.18
47785;BME280;35233;55.686;37.848;2023-12-22T07:19:04;97366.34;;;17.93;36.77
47785;BME280;35233;55.686;37.848;2023-12-22T07:21:36;97368.72;;;17.96;36.47
47785;BME280;35233;55.686;37.848;2023-12-22T07:24:01;97373.53;;;17.93;36.99
47785;BME280;35233;55.686;37.848;2023-12-22T07:26:27;97372.13;;;17.98;36.45
47785;BME280;35233;55.686;37.848;2023-12-22T07:28:53;97361.16;;;17.92;36.52
47785;BME280;35233;55.686;37.848;2023-12-22T07:31:19;97354.28;;;17.89;36.56
47785;BME280;35233;55.686;37.848;2023-12-22T07:33:45;97359.44;;;18.00;36.60
47785;BME280;35233;55.686;37.848;2023-12-22T07:36:10;97361.13;;;18.01;36.71
47785;BME280;35233;55.686;37.848;2023-12-22T07:38:37;97354.78;;;18.02;36.75
47785;BME280;35233;55.686;37.848;2023-12-22T07:41:05;97349.84;;;18.07;36.46
47785;BME280;35233;55.686;37.848;2023-12-22T07:43:30;97351.28;;;18.02;36.23
47785;BME280;35233;55.686;37.848;2023-12-22T07:45:56;97356.75;;;18.00;36.43
47785;BME280;35233;55.686;37.848;2023-12-22T07:48:21;97344.09;;;18.02;36.75
47785;BME280;35233;55.686;37.848;2023-12-22T07:50:47;97339.47;;;18.04;36.35
47785;BME280;35233;55.686;37.848;2023-12-22T07:53:13;97344.66;;;18.06;36.25
47785;BME280;35233;55.686;37.848;2023-12-22T07:55:38;97339.88;;;18.00;36.73
47785;BME280;35233;55.686;37.848;2023-12-22T07:58:05;97341.03;;;17.97;36.78
47785;BME280;35233;55.686;37.848;2023-12-22T08:00:31;97346.47;;;18.05;36.41
47785;BME280;35233;55.686;37.848;2023-12-22T08:02:57;97352.81;;;18.04;36.86
47785;BME280;35233;55.686;37.848;2023-12-22T08:05:22;97346.78;;;18.02;36.39
47785;BME280;35233;55.686;37.848;2023-12-22T08:07:48;97338.47;;;18.05;36.59
47785;BME280;35233;55.686;37.848;2023-12-22T08:10:13;97338.34;;;18.07;36.44
47785;BME280;35233;55.686;37.848;2023-12-22T08:12:39;97333.53;;;18.10;36.33
47785;BME280;35233;55.686;37.848;2023-12-22T08:15:05;97320.47;;;18.07;36.26
47785;BME280;35233;55.686;37.848;2023-12-22T08:17:32;97309.91;;;18.06;36.25
47785;BME280;35233;55.686;37.848;2023-12-22T08:19:58;97323.25;;;18.16;36.09
47785;BME280;35233;55.686;37.848;2023-12-22T08:22:25;97314.53;;;18.14;36.83
47785;BME280;35233;55.686;37.848;2023-12-22T08:24:50;97321.72;;;18.13;36.47
47785;BME280;35233;55.686;37.848;2023-12-22T08:27:16;97317.63;;;18.09;36.43
47785;BME280;35233;55.686;37.848;2023-12-22T08:29:42;97316.06;;;18.16;36.85
47785;BME280;35233;55.686;37.848;2023-12-22T08:32:08;97316.59;;;18.20;36.56
47785;BME280;35233;55.686;37.848;2023-12-22T08:34:33;97312.94;;;18.21;36.35
47785;BME280;35233;55.686;37.848;2023-12-22T08:36:59;97314.22;;;18.17;36.96
47785;BME280;35233;55.686;37.848;2023-12-22T08:39:25;97334.59;;;18.18;36.54
47785;BME280;35233;55.686;37.848;2023-12-22T08:41:51;97324.91;;;18.17;36.50
47785;BME280;35233;55.686;37.848;2023-12-22T08:44:18;97322.66;;;18.22;36.80
47785;BME280;35233;55.686;37.848;2023-12-22T08:46:44;97320.94;;;18.21;36.86
47785;BME280;35233;55.686;37.848;2023-12-22T08:49:10;97312.09;;;18.20;36.83
47785;BME280;35233;55.686;37.848;2023-12-22T08:51:36;97313.22;;;18.18;37.00
47785;BME280;35233;55.686;37.848;2023-12-22T08:54:02;97312.09;;;18.20;36.90
47785;BME280;35233;55.686;37.848;2023-12-22T08:56:29;97310.38;;;18.29;36.85
47785;BME280;35233;55.686;37.848;2023-12-22T08:58:55;97307.56;;;18.30;36.76
47785;BME280;35233;55.686;37.848;2023-12-22T09:01:21;97291.28;;;18.24;36.47
47785;BME280;35233;55.686;37.848;2023-12-22T09:03:47;97294.31;;;18.29;36.73
47785;BME280;35233;55.686;37.848;2023-12-22T09:06:17;97290.28;;;18.25;36.96
47785;BME280;35233;55.686;37.848;2023-12-22T09:08:44;97300.78;;;18.36;36.35
47785;BME280;35233;55.686;37.848;2023-12-22T09:11:15;97304.13;;;18.38;36.50
47785;BME280;35233;55.686;37.848;2023-12-22T09:13:41;97299.25;;;18.33;36.23
47785;BME280;35233;55.686;37.848;2023-12-22T09:16:08;97291.34;;;18.32;36.55
47785;BME280;35233;55.686;37.848;2023-12-22T09:18:34;97294.28;;;18.39;36.73
47785;BME280;35233;55.686;37.848;2023-12-22T09:21:00;97297.03;;;18.47;36.37
47785;BME280;35233;55.686;37.848;2023-12-22T09:23:26;97312.53;;;18.43;36.31
47785;BME280;35233;55.686;37.848;2023-12-22T09:25:52;97301.00;;;18.43;36.67
47785;BME280;35233;55.686;37.848;2023-12-22T09:28:18;97295.66;;;18.43;36.22
47785;BME280;35233;55.686;37.848;2023-12-22T09:30:44;97300.41;;;18.49;36.33
47785;BME280;35233;55.686;37.848;2023-12-22T09:33:10;97292.84;;;18.44;36.61
47785;BME280;35233;55.686;37.848;2023-12-22T09:35:36;97287.50;;;18.44;36.46
47785;BME280;35233;55.686;37.848;2023-12-22T09:38:02;97292.69;;;18.46;36.12
47785;BME280;35233;55.686;37.848;2023-12-22T09:40:31;97285.41;;;18.38;36.39
47785;BME280;35233;55.686;37.848;2023-12-22T09:43:08;97284.13;;;18.42;36.51
47785;BME280;35233;55.686;37.848;2023-12-22T09:45:38;97289.63;;;18.41;36.11
47785;BME280;35233;55.686;37.848;2023-12-22T09:48:07;97285.28;;;18.40;36.22
47785;BME280;35233;55.686;37.848;2023-12-22T09:50:34;97279.91;;;18.40;36.19
47785;BME280;35233;55.686;37.848;2023-12-22T09:53:00;97281.16;;;18.45;36.59
47785;BME280;35233;55.686;37.848;2023-12-22T09:55:28;97268.78;;;18.44;36.08
47785;BME280;35233;55.686;37.848;2023-12-22T09:57:54;97274.13;;;18.44;36.18
47785;BME280;35233;55.686;37.848;2023-12-22T10:00:21;97274.81;;;18.46;36.45
47785;BME280;35233;55.686;37.848;2023-12-22T10:02:48;97267.78;;;18.45;36.33
47785;BME280;35233;55.686;37.848;2023-12-22T10:05:14;97268.31;;;18.49;35.92
47785;BME280;35233;55.686;37.848;2023-12-22T10:07:41;97263.59;;;18.43;36.37
47785;BME280;35233;55.686;37.848;2023-12-22T10:10:10;97251.75;;;18.45;36.28
47785;BME280;35233;55.686;37.848;2023-12-22T10:12:38;97247.41;;;18.44;36.51
47785;BME280;35233;55.686;37.848;2023-12-22T10:15:05;97255.56;;;18.43;36.38
47785;BME280;35233;55.686;37.848;2023-12-22T10:17:33;97260.47;;;18.47;36.24
47785;BME280;35233;55.686;37.848;2023-12-22T10:19:59;97246.69;;;18.42;36.36
47785;BME280;35233;55.686;37.848;2023-12-22T10:22:24;97238.00;;;18.40;36.66
47785;BME280;35233;55.686;37.848;2023-12-22T10:24:53;97240.22;;;18.45;36.40
47785;BME280;35233;55.686;37.848;2023-12-22T10:27:19;97236.22;;;18.49;36.42
47785;BME280;35233;55.686;37.848;2023-12-22T10:29:49;97232.72;;;18.48;36.51
47785;BME280;35233;55.686;37.848;2023-12-22T10:32:15;97234.25;;;18.51;36.22
47785;BME280;35233;55.686;37.848;2023-12-22T10:34:41;97230.34;;;18.45;36.76
47785;BME280;35233;55.686;37.848;2023-12-22T10:37:07;97238.38;;;18.45;36.29
47785;BME280;35233;55.686;37.848;2023-12-22T10:39:35;97236.31;;;18.39;36.46
47785;BME280;35233;55.686;37.848;2023-12-22T10:42:02;97230.97;;;18.39;36.53
47785;BME280;35233;55.686;37.848;2023-12-22T10:44:31;97230.13;;;18.39;36.23
47785;BME280;35233;55.686;37.848;2023-12-22T10:46:57;97232.09;;;18.37;36.23
47785;BME280;35233;55.686;37.848;2023-12-22T10:49:24;97228.75;;;18.35;36.66
47785;BME280;35233;55.686;37.848;2023-12-22T10:51:51;97229.88;;;18.32;36.19
47785;BME280;35233;55.686;37.848;2023-12-22T10:54:19;97228.06;;;18.32;36.21
47785;BME280;35233;55.686;37.848;2023-12-22T10:56:45;97231.41;;;18.35;36.67
47785;BME280;35233;55.686;37.848;2023-12-22T10:59:11;97217.53;;;18.31;36.22
47785;BME280;35233;55.686;37.848;2023-12-22T11:01:37;97218.66;;;18.28;36.81
47785;BME280;35233;55.686;37.848;2023-12-22T11:04:07;97219.19;;;18.32;36.71
47785;BME280;35233;55.686;37.848;2023-12-22T11:06:35;97217.81;;;18.28;36.76
47785;BME280;35233;55.686;37.848;2023-12-22T11:09:09;97217.13;;;18.26;36.29
47785;BME280;35233;55.686;37.848;2023-12-22T11:11:39;97212.63;;;18.26;36.59
47785;BME280;35233;55.686;37.848;2023-12-22T11:14:06;97216.28;;;18.25;36.31
47785;BME280;35233;55.686;37.848;2023-12-22T11:16:35;97214.31;;;18.27;36.15
47785;BME280;35233;55.686;37.848;2023-12-22T11:19:02;97211.94;;;18.24;36.39
47785;BME280;35233;55.686;37.848;2023-12-22T11:21:28;97220.56;;;18.18;36.32
47785;BME280;35233;55.686;37.848;2023-12-22T11:23:55;97226.06;;;18.17;36.94
47785;BME280;35233;55.686;37.848;2023-12-22T11:26:22;97230.25;;;18.19;36.33
47785;BME280;35233;55.686;37.848;2023-12-22T11:28:51;97218.72;;;18.19;36.24
47785;BME280;35233;55.686;37.848;2023-12-22T11:31:18;97221.84;;;18.14;36.72
47785;BME280;35233;55.686;37.848;2023-12-22T11:33:45;97217.50;;;18.13;36.54
47785;BME280;35233;55.686;37.848;2023-12-22T11:36:15;97217.34;;;18.15;37.02
47785;BME280;35233;55.686;37.848;2023-12-22T11:38:42;97222.69;;;18.15;36.43
47785;BME280;35233;55.686;37.848;2023-12-22T11:41:22;97211.47;;;18.11;36.37
47785;BME280;35233;55.686;37.848;2023-12-22T11:43:50;97200.38;;;18.06;36.62
47785;BME280;35233;55.686;37.848;2023-12-22T11:46:17;97208.38;;;18.06;36.62
47785;BME280;35233;55.686;37.848;2023-12-22T11:48:49;97216.88;;;18.01;36.97
47785;BME280;35233;55.686;37.848;2023-12-22T11:51:17;97212.50;;;18.00;36.96
47785;BME280;35233;55.686;37.848;2023-12-22T11:53:43;97221.50;;;17.99;36.52
47785;BME280;35233;55.686;37.848;2023-12-22T11:56:10;97210.00;;;17.99;36.96
47785;BME280;35233;55.686;37.848;2023-12-22T11:58:46;97208.59;;;17.95;36.60
47785;BME280;35233;55.686;37.848;2023-12-22T12:01:23;97204.25;;;17.94;36.79
47785;BME280;35233;55.686;37.848;2023-12-22T12:03:53;97209.28;;;17.97;36.47
47785;BME280;35233;55.686;37.848;2023-12-22T12:08:51;97203.41;;;17.93;37.30
47785;BME280;35233;55.686;37.848;2023-12-22T12:11:22;97212.25;;;17.94;36.63
47785;BME280;35233;55.686;37.848;2023-12-22T12:13:48;97213.56;;;17.90;36.79
47785;BME280;35233;55.686;37.848;2023-12-22T12:16:16;97212.56;;;17.91;37.12
47785;BME280;35233;55.686;37.848;2023-12-22T12:18:44;97202.63;;;17.83;36.96
47785;BME280;35233;55.686;37.848;2023-12-22T12:21:11;97203.84;;;17.88;37.07
47785;BME280;35233;55.686;37.848;2023-12-22T12:23:37;97210.63;;;17.83;36.90
47785;BME280;35233;55.686;37.848;2023-12-22T12:26:11;97208.81;;;17.83;37.15
47785;BME280;35233;55.686;37.848;2023-12-22T12:28:37;97204.63;;;17.81;36.99
47785;BME280;35233;55.686;37.848;2023-12-22T12:31:08;97193.22;;;17.79;37.21
47785;BME280;35233;55.686;37.848;2023-12-22T12:33:35;97198.28;;;17.82;36.79
47785;BME280;35233;55.686;37.848;2023-12-22T12:36:02;97186.88;;;17.80;36.83
47785;BME280;35233;55.686;37.848;2023-12-22T12:38:55;97180.88;;;17.78;37.27
47785;BME280;35233;55.686;37.848;2023-12-22T12:41:31;97180.00;;;17.77;37.26
47785;BME280;35233;55.686;37.848;2023-12-22T12:43:58;97175.81;;;17.75;36.86
47785;BME280;35233;55.686;37.848;2023-12-22T12:46:35;97172.28;;;17.74;37.21
47785;BME280;35233;55.686;37.848;2023-12-22T12:49:09;97175.09;;;17.73;36.71
47785;BME280;35233;55.686;37.848;2023-12-22T12:51:41;97174.56;;;17.69;36.82
47785;BME280;35233;55.686;37.848;2023-12-22T12:54:09;97175.69;;;17.67;37.26
47785;BME280;35233;55.686;37.848;2023-12-22T12:56:43;97164.31;;;17.64;37.09
47785;BME280;35233;55.686;37.848;2023-12-22T12:59:13;97165.31;;;17.63;36.97
47785;BME280;35233;55.686;37.848;2023-12-22T13:01:42;97174.88;;;17.66;37.30
47785;BME280;35233;55.686;37.848;2023-12-22T13:04:09;97175.69;;;17.67;37.00
47785;BME280;35233;55.686;37.848;2023-12-22T13:06:35;97169.53;;;17.66;36.90